Time;durP1;ratioP1;P1;durP2;ratioP2;P2;SDS_P1;SDS_P2;PMS_P1;PMS_P2;Temp;Humidity;BMP_temperature;BMP_pressure;BME280_temperature;BME280_humidity;BME280_pressure;Samples;Min_cycle;Max_cycle;Signal;HPM_P1;HPM_P2
2021/08/12 00:01:18;;;;;;;63.47;28.47;;;;;;;18.23;87.37;99274.25;5155044;27;20113;-72
2021/08/12 00:03:45;;;;;;;56.40;26.73;;;;;;;18.23;87.40;99276.94;5154718;27;20134;-71
2021/08/12 00:06:11;;;;;;;56.65;26.55;;;;;;;18.20;87.37;99271.91;5155255;27;20087;-71
2021/08/12 00:08:41;;;;;;;59.33;26.75;;;;;;;18.19;87.50;99272.09;5155366;27;20137;-76
2021/08/12 00:11:07;;;;;;;58.88;28.80;;;;;;;18.21;87.44;99262.88;5155729;27;20069;-72
2021/08/12 00:13:33;;;;;;;60.72;28.13;;;;;;;18.20;87.40;99239.78;5155603;27;20380;-70
2021/08/12 00:16:03;;;;;;;60.95;28.67;;;;;;;18.22;87.43;99245.00;5155032;27;20050;-75
2021/08/12 00:18:30;;;;;;;58.72;27.45;;;;;;;18.23;87.35;99228.75;5154481;27;20039;-73
2021/08/12 00:20:56;;;;;;;66.25;29.35;;;;;;;18.19;87.48;99230.09;5154290;27;20042;-76
2021/08/12 00:23:21;;;;;;;66.55;30.60;;;;;;;18.19;87.74;99229.28;5154627;27;20121;-76
2021/08/12 00:25:47;;;;;;;67.28;30.20;;;;;;;18.18;87.74;99232.94;5154288;27;20056;-72
2021/08/12 00:28:14;;;;;;;67.22;30.83;;;;;;;18.18;87.68;99231.13;5154342;27;20047;-71
2021/08/12 00:30:40;;;;;;;67.25;31.63;;;;;;;18.21;88.04;99230.75;5135883;27;20086;-72
2021/08/12 00:33:06;;;;;;;70.82;31.27;;;;;;;18.25;87.89;99229.38;5143182;27;20043;-73
2021/08/12 00:35:33;;;;;;;73.80;31.27;;;;;;;18.31;87.84;99221.66;5133072;27;20046;-74
2021/08/12 00:38:01;;;;;;;68.32;31.02;;;;;;;18.34;87.86;99215.94;5114077;27;20535;-71
2021/08/12 00:40:28;;;;;;;70.57;31.63;;;;;;;18.31;87.84;99210.97;5114548;27;20149;-71
2021/08/12 00:42:53;;;;;;;78.80;32.73;;;;;;;18.26;87.85;99198.91;5097837;27;20047;-70
2021/08/12 00:45:19;;;;;;;67.15;29.90;;;;;;;18.26;88.02;99177.50;5115169;27;20375;-69
2021/08/12 00:47:45;;;;;;;69.82;31.98;;;;;;;18.26;88.07;99172.16;5133137;27;20597;-69
2021/08/12 00:50:12;;;;;;;71.43;32.38;;;;;;;18.31;87.96;99170.81;5115789;27;20039;-70
2021/08/12 00:52:39;;;;;;;77.13;35.17;;;;;;;18.28;87.93;99198.75;5135327;27;20046;-71
2021/08/12 00:55:07;;;;;;;72.53;33.38;;;;;;;18.32;88.04;99192.03;5135167;27;20062;-71
2021/08/12 00:57:34;;;;;;;73.75;34.60;;;;;;;18.30;88.08;99199.41;5135312;27;20042;-71
2021/08/12 01:00:00;;;;;;;74.63;33.67;;;;;;;18.29;88.06;99202.25;5134986;27;20499;-72
2021/08/12 01:02:27;;;;;;;72.43;32.05;;;;;;;18.30;88.09;99220.00;5135038;27;20047;-71
2021/08/12 01:04:53;;;;;;;70.05;33.28;;;;;;;18.33;88.11;99215.13;5135171;27;20050;-70
2021/08/12 01:07:26;;;;;;;61.13;30.30;;;;;;;18.44;88.05;99221.88;5135298;27;20039;-70
2021/08/12 01:10:38;;;;;;;77.38;33.25;;;;;;;18.51;87.73;99230.84;5134829;27;20064;-71
2021/08/12 01:13:12;;;;;;;75.47;34.22;;;;;;;18.45;87.72;99223.53;5153385;27;20198;-70
2021/08/12 01:15:42;;;;;;;79.70;34.83;;;;;;;18.48;87.69;99233.91;5118122;27;20049;-69
2021/08/12 01:18:27;;;;;;;70.72;32.65;;;;;;;18.39;87.86;99219.75;5118043;27;20129;-69
2021/08/12 01:21:12;;;;;;;76.50;32.67;;;;;;;18.36;88.33;99204.03;5135142;27;20050;-70
2021/08/12 01:23:39;;;;;;;75.60;32.58;;;;;;;18.29;88.79;99192.38;5153611;27;20038;-76
2021/08/12 01:26:05;;;;;;;76.00;32.95;;;;;;;18.30;89.02;99198.56;5153403;27;20432;-72
2021/08/12 01:28:39;;;;;;;74.97;33.15;;;;;;;18.35;89.40;99206.91;5135083;27;20046;-70
2021/08/12 01:31:24;;;;;;;86.40;37.05;;;;;;;18.35;89.21;99190.84;5117913;27;20043;-71
2021/08/12 01:34:15;;;;;;;73.75;32.08;;;;;;;18.38;89.39;99171.72;5134665;27;20042;-69
2021/08/12 01:36:42;;;;;;;67.45;31.35;;;;;;;18.38;89.12;99169.88;5135074;27;20416;-70
2021/08/12 01:39:11;;;;;;;65.70;30.00;;;;;;;18.41;89.07;99166.81;5134914;27;20111;-73
2021/08/12 01:41:39;;;;;;;61.17;30.52;;;;;;;18.41;89.06;99174.88;5134920;27;20050;-69
2021/08/12 01:44:05;;;;;;;67.25;31.35;;;;;;;18.42;88.99;99165.00;5134475;27;20392;-70
2021/08/12 01:46:33;;;;;;;70.35;32.33;;;;;;;18.46;88.78;99170.81;5117436;27;20077;-71
2021/08/12 01:49:02;;;;;;;67.97;31.88;;;;;;;18.47;88.81;99165.28;5135669;27;20043;-70
2021/08/12 01:51:29;;;;;;;73.50;33.08;;;;;;;18.46;88.71;99165.47;5157491;27;20038;-70
2021/08/12 01:53:57;;;;;;;68.82;31.92;;;;;;;18.47;88.87;99162.59;5121672;27;20057;-72
2021/08/12 01:56:23;;;;;;;78.13;33.50;;;;;;;18.49;88.88;99143.66;5139056;27;20470;-70
2021/08/12 01:58:51;;;;;;;67.13;31.30;;;;;;;18.47;88.72;99141.19;5138283;27;20078;-72
2021/08/12 02:01:18;;;;;;;70.70;31.95;;;;;;;18.49;88.72;99141.00;5120620;27;20038;-73
2021/08/12 02:03:46;;;;;;;68.32;31.63;;;;;;;18.49;88.84;99132.97;5137666;27;20062;-70
2021/08/12 02:06:13;;;;;;;66.22;31.23;;;;;;;18.52;88.68;99148.66;5120355;27;20069;-70
2021/08/12 02:08:39;;;;;;;68.65;32.08;;;;;;;18.53;88.68;99142.28;5121271;27;20046;-70
2021/08/12 02:11:06;;;;;;;67.95;30.90;;;;;;;18.48;88.66;99148.22;5137711;27;20147;-70
2021/08/12 02:13:33;;;;;;;71.80;31.88;;;;;;;18.46;88.42;99146.72;5137972;27;20468;-72
2021/08/12 02:15:58;;;;;;;68.90;31.65;;;;;;;18.48;88.76;99150.88;5138571;27;20372;-72
2021/08/12 02:18:25;;;;;;;79.90;34.55;;;;;;;18.51;88.83;99142.47;5138274;27;20119;-69
2021/08/12 02:20:57;;;;;;;72.70;32.83;;;;;;;18.52;88.73;99149.50;5138155;27;20156;-71
2021/08/12 02:23:33;;;;;;;72.18;32.25;;;;;;;18.49;88.92;99141.84;5156613;27;20506;-72
2021/08/12 02:26:03;;;;;;;79.22;34.33;;;;;;;18.50;88.96;99151.50;5156373;27;20042;-73
2021/08/12 02:28:31;;;;;;;84.95;33.92;;;;;;;18.54;88.89;99141.28;5121367;27;20051;-70
2021/08/12 02:30:58;;;;;;;92.35;35.75;;;;;;;18.52;88.91;99149.50;5121150;27;20038;-69
2021/08/12 02:33:27;;;;;;;99.97;38.22;;;;;;;18.54;88.96;99147.47;5138502;27;20138;-69
2021/08/12 02:35:53;;;;;;;84.97;35.17;;;;;;;18.57;88.79;99148.94;5137925;27;20050;-71
2021/08/12 02:38:19;;;;;;;79.93;35.10;;;;;;;18.58;88.70;99148.75;5120979;27;20042;-71
2021/08/12 02:40:47;;;;;;;83.07;35.88;;;;;;;18.57;88.76;99139.06;5120966;27;20047;-71
2021/08/12 02:43:14;;;;;;;88.55;37.33;;;;;;;18.58;88.81;99143.41;5120891;27;20046;-73
2021/08/12 02:45:40;;;;;;;105.47;40.33;;;;;;;18.62;88.62;99143.03;5121022;27;20049;-73
2021/08/12 02:48:08;;;;;;;113.15;40.97;;;;;;;18.62;88.56;99140.34;5137285;27;20046;-72
2021/08/12 02:50:38;;;;;;;98.60;37.90;;;;;;;18.61;88.46;99138.72;5120420;27;20410;-75
2021/08/12 02:53:05;;;;;;;112.55;39.80;;;;;;;18.59;88.53;99133.50;5120315;27;20074;-73
2021/08/12 02:55:33;;;;;;;123.22;40.90;;;;;;;18.62;88.64;99137.66;5120777;27;20365;-72
2021/08/12 02:57:59;;;;;;;104.68;37.60;;;;;;;18.62;88.62;99122.44;5156044;27;20046;-69
2021/08/12 03:00:25;;;;;;;117.30;39.47;;;;;;;18.65;88.43;99126.59;5136275;27;20042;-73
2021/08/12 03:02:52;;;;;;;115.68;39.17;;;;;;;18.65;88.39;99126.59;5137518;27;20122;-70
2021/08/12 03:05:19;;;;;;;131.43;41.97;;;;;;;18.68;88.37;99120.84;5155814;27;20094;-77
2021/08/12 03:07:47;;;;;;;110.35;38.00;;;;;;;18.73;88.31;99129.19;5137411;27;20054;-73
2021/08/12 03:10:14;;;;;;;;;;;;;;;18.78;88.06;99129.47;5137748;27;20703;-75
2021/08/12 03:12:40;;;;;;;118.53;40.05;;;;;;;18.82;87.89;99129.94;5137224;27;20349;-72
2021/08/12 03:15:09;;;;;;;123.63;40.90;;;;;;;18.83;87.98;99137.78;5136904;27;20079;-74
2021/08/12 03:17:35;;;;;;;101.68;37.53;;;;;;;18.82;87.89;99144.16;5110657;27;20284;-72
2021/08/12 03:20:03;;;;;;;111.03;37.22;;;;;;;18.85;87.76;99138.41;5133974;27;20052;-72
2021/08/12 03:22:30;;;;;;;111.43;38.20;;;;;;;18.84;87.67;99144.81;5116166;27;20038;-71
2021/08/12 03:24:55;;;;;;;109.35;39.90;;;;;;;18.96;87.69;99155.09;5116419;27;20126;-72
2021/08/12 03:27:21;;;;;;;115.30;38.42;;;;;;;18.99;87.49;99157.38;5116612;27;20514;-72
2021/08/12 03:29:50;;;;;;;100.55;35.72;;;;;;;19.06;87.47;99159.13;5116191;27;20036;-74
2021/08/12 03:32:16;;;;;;;99.55;36.75;;;;;;;19.08;87.14;99172.38;5099054;27;20497;-72
2021/08/12 03:34:44;;;;;;;95.57;37.05;;;;;;;19.15;87.23;99154.53;5150677;27;20058;-74
2021/08/12 03:37:11;;;;;;;97.75;36.22;;;;;;;19.21;87.11;99148.38;5082189;27;20039;-75
2021/08/12 03:39:37;;;;;;;90.07;34.70;;;;;;;19.18;86.87;99154.13;5150764;27;20082;-73
2021/08/12 03:42:03;;;;;;;83.90;33.60;;;;;;;19.16;86.79;99148.13;5128228;27;20435;-72
2021/08/12 03:44:29;;;;;;;82.38;32.92;;;;;;;19.18;86.81;99156.81;5127571;27;20137;-72
2021/08/12 03:46:55;;;;;;;92.13;35.95;;;;;;;19.26;87.12;99160.41;5136073;27;20134;-72
2021/08/12 03:49:22;;;;;;;77.73;32.60;;;;;;;19.27;86.91;99154.84;5115682;27;20090;-74
2021/08/12 03:51:52;;;;;;;78.65;32.63;;;;;;;19.31;86.67;99152.63;5131841;27;20066;-73
2021/08/12 03:54:18;;;;;;;79.38;32.72;;;;;;;19.34;86.56;99163.81;5143472;27;20083;-77
2021/08/12 03:56:44;;;;;;;80.97;32.97;;;;;;;19.40;86.42;99167.56;5130296;27;20129;-74
2021/08/12 03:59:11;;;;;;;88.18;33.83;;;;;;;19.43;86.22;99163.69;5115612;27;20047;-71
2021/08/12 04:01:37;;;;;;;101.22;41.13;;;;;;;19.50;86.19;99157.41;5129739;27;20045;-76
2021/08/12 04:04:03;;;;;;;133.90;46.10;;;;;;;19.49;85.89;99153.06;5115642;27;20047;-77
2021/08/12 04:06:31;;;;;;;121.70;42.70;;;;;;;19.49;85.72;99155.72;5129207;27;20042;-72
2021/08/12 04:08:57;;;;;;;115.93;40.67;;;;;;;19.45;85.42;99164.34;5154215;27;20396;-77
2021/08/12 04:11:23;;;;;;;95.38;37.45;;;;;;;19.38;85.83;99158.91;5154427;27;20053;-75
2021/08/12 04:13:49;;;;;;;85.43;35.17;;;;;;;19.31;86.18;99155.31;5136155;27;20141;-78
2021/08/12 04:16:15;;;;;;;77.85;33.78;;;;;;;19.24;86.28;99157.94;5154741;27;20054;-74
2021/08/12 04:18:41;;;;;;;84.17;34.67;;;;;;;19.25;86.46;99154.19;5153642;27;20050;-74
2021/08/12 04:21:07;;;;;;;78.97;31.70;;;;;;;19.29;86.69;99152.81;5153308;27;20283;-76
2021/08/12 04:23:34;;;;;;;71.30;31.52;;;;;;;19.29;86.38;99165.38;5149889;27;20031;-75
2021/08/12 04:26:00;;;;;;;76.85;30.80;;;;;;;19.29;86.44;99166.22;5150137;27;20379;-74
2021/08/12 04:28:26;;;;;;;81.40;33.90;;;;;;;19.28;86.61;99161.03;5153756;27;20081;-72
2021/08/12 04:30:52;;;;;;;75.72;31.38;;;;;;;19.30;86.87;99157.19;5135457;27;20047;-74
2021/08/12 04:33:18;;;;;;;72.28;30.33;;;;;;;19.35;86.64;99151.22;5135495;27;20041;-74
2021/08/12 04:35:45;;;;;;;76.72;31.83;;;;;;;19.38;86.27;99149.00;5153909;27;20223;-74
2021/08/12 04:38:12;;;;;;;64.25;29.42;;;;;;;19.37;86.82;99136.59;5135346;27;20065;-74
2021/08/12 04:40:38;;;;;;;69.45;31.13;;;;;;;19.39;87.12;99139.13;5136485;27;20511;-75
2021/08/12 04:43:04;;;;;;;66.82;30.90;;;;;;;19.50;87.13;99133.25;5137079;27;20039;-74
2021/08/12 04:45:30;;;;;;;61.70;29.58;;;;;;;19.53;86.46;99135.56;5136795;27;20440;-76
2021/08/12 04:48:01;;;;;;;93.95;55.90;;;;;;;19.63;86.51;99129.88;5135817;27;20073;-76
2021/08/12 04:50:31;;;;;;;74.50;37.83;;;;;;;19.73;86.32;99126.88;5136270;27;20050;-75
2021/08/12 04:52:57;;;;;;;64.43;29.73;;;;;;;19.79;86.12;99110.00;5135869;27;20042;-76
2021/08/12 04:55:23;;;;;;;60.97;30.63;;;;;;;19.91;85.51;99090.72;5135960;27;20499;-74
2021/08/12 04:57:49;;;;;;;69.57;31.08;;;;;;;19.84;84.99;99075.41;5135598;27;20121;-72
2021/08/12 05:00:16;;;;;;;76.25;34.20;;;;;;;19.86;85.37;99081.41;5154527;27;20066;-75
2021/08/12 05:02:42;;;;;;;73.90;33.28;;;;;;;19.95;85.03;99073.22;5154722;27;20038;-77
2021/08/12 05:05:09;;;;;;;81.72;37.33;;;;;;;20.13;84.87;99068.19;5136025;27;20341;-75
2021/08/12 05:07:36;;;;;;;84.40;38.40;;;;;;;20.29;84.20;99063.56;5135865;27;20047;-76
2021/08/12 05:10:03;;;;;;;87.13;37.58;;;;;;;20.41;83.32;99056.63;5135504;27;20039;-73
2021/08/12 05:12:29;;;;;;;83.20;34.77;;;;;;;20.44;83.83;99036.59;5135315;27;20060;-77
2021/08/12 05:14:58;;;;;;;65.85;30.45;;;;;;;20.39;83.31;99025.56;5135319;27;20047;-78
2021/08/12 05:17:24;;;;;;;65.65;31.65;;;;;;;20.38;83.27;99032.81;5153625;27;20054;-74
2021/08/12 05:19:50;;;;;;;57.67;28.33;;;;;;;20.38;83.34;99030.13;5135366;27;20042;-76
2021/08/12 05:22:21;;;;;;;54.25;27.50;;;;;;;20.30;83.54;99032.97;5134948;27;20045;-74
2021/08/12 05:24:49;;;;;;;59.60;29.80;;;;;;;20.24;83.63;99039.13;5135103;27;20046;-77
2021/08/12 05:27:15;;;;;;;55.58;29.63;;;;;;;20.37;83.93;99055.31;5134542;27;20167;-74
2021/08/12 05:29:41;;;;;;;56.78;28.02;;;;;;;20.46;82.80;99027.28;5134855;27;20039;-76
2021/08/12 05:32:07;;;;;;;60.88;30.30;;;;;;;20.48;82.62;99030.59;5153389;27;20398;-76
2021/08/12 05:34:34;;;;;;;58.70;29.92;;;;;;;20.59;82.40;99025.69;5135537;27;20133;-73
2021/08/12 05:37:00;;;;;;;61.10;29.00;;;;;;;20.65;82.60;99030.28;5118310;27;20388;-78
2021/08/12 05:39:26;;;;;;;55.78;27.88;;;;;;;20.64;82.12;99031.31;5153616;27;20084;-75
2021/08/12 05:41:52;;;;;;;59.20;29.67;;;;;;;20.66;81.96;99039.97;5135323;27;20031;-77
2021/08/12 05:44:18;;;;;;;59.97;31.90;;;;;;;20.84;81.81;99026.03;5134795;27;20053;-75
2021/08/12 05:46:44;;;;;;;60.20;31.00;;;;;;;21.06;81.14;99025.88;5134591;27;20061;-76
2021/08/12 05:49:11;;;;;;;60.75;30.77;;;;;;;21.24;80.49;99018.06;5134792;27;20038;-76
2021/08/12 05:51:37;;;;;;;57.20;30.63;;;;;;;21.32;79.90;99003.59;5134972;27;20046;-75
2021/08/12 05:54:07;;;;;;;60.65;29.45;;;;;;;21.29;79.43;99014.78;5135055;27;20034;-78
2021/08/12 05:56:35;;;;;;;53.65;28.67;;;;;;;21.49;78.80;99020.16;5134785;27;20126;-78
2021/08/12 05:59:01;;;;;;;52.53;27.27;;;;;;;21.72;77.92;99030.56;5135123;27;20126;-76
2021/08/12 06:01:27;;;;;;;49.33;27.55;;;;;;;22.00;77.25;99021.44;5135055;27;20542;-77
2021/08/12 06:03:55;;;;;;;53.55;26.92;;;;;;;22.02;76.71;99024.75;5134985;27;20131;-76
2021/08/12 06:06:22;;;;;;;50.20;26.42;;;;;;;21.96;77.11;99031.78;5135194;27;20047;-78
2021/08/12 06:08:48;;;;;;;53.42;25.63;;;;;;;22.18;76.69;99044.19;5153758;27;20126;-75
2021/08/12 06:11:14;;;;;;;50.83;26.90;;;;;;;22.27;76.23;99049.16;5134720;27;20039;-78
2021/08/12 06:13:41;;;;;;;53.22;27.88;;;;;;;22.26;75.92;99068.22;5153384;27;20125;-75
2021/08/12 06:16:10;;;;;;;52.78;27.65;;;;;;;22.19;76.22;99078.19;5134491;27;20043;-74
2021/08/12 06:18:36;;;;;;;54.33;29.75;;;;;;;21.97;77.03;99092.69;5153760;27;20043;-76
2021/08/12 06:21:02;;;;;;;64.00;30.88;;;;;;;21.97;77.06;99092.69;5134499;27;20411;-73
2021/08/12 06:23:28;;;;;;;68.13;32.38;;;;;;;22.26;76.16;99095.97;5134173;27;20061;-74
2021/08/12 06:25:54;;;;;;;66.13;32.33;;;;;;;22.79;73.68;99083.44;5153085;27;20078;-76
2021/08/12 06:28:21;;;;;;;57.47;27.75;;;;;;;23.05;71.74;99069.06;5134682;27;20435;-74
2021/08/12 06:30:51;;;;;;;64.32;30.65;;;;;;;22.77;72.14;99083.66;5134467;27;20087;-78
2021/08/12 06:33:17;;;;;;;78.18;34.55;;;;;;;22.44;74.06;99087.28;5152654;27;20034;-76
2021/08/12 06:35:43;;;;;;;89.53;39.40;;;;;;;22.19;75.52;99083.56;5136557;27;20178;-75
2021/08/12 06:38:09;;;;;;;84.25;36.30;;;;;;;22.06;76.32;99087.09;5137947;27;20455;-79
2021/08/12 06:40:36;;;;;;;91.40;38.45;;;;;;;21.92;77.24;99095.19;5157077;27;20401;-77
2021/08/12 06:43:02;;;;;;;81.65;35.08;;;;;;;21.98;77.13;99099.75;5156708;27;20418;-77
2021/08/12 06:45:30;;;;;;;75.85;33.90;;;;;;;22.04;76.74;99102.63;5120747;27;20039;-79
2021/08/12 06:47:57;;;;;;;79.22;32.78;;;;;;;22.08;76.93;99103.88;5121046;27;20137;-76
2021/08/12 06:50:24;;;;;;;78.88;33.47;;;;;;;22.00;77.43;99107.59;5137818;27;20051;-77
2021/08/12 06:52:51;;;;;;;70.43;32.25;;;;;;;21.89;77.29;99117.13;5137525;27;20553;-75
2021/08/12 06:55:17;;;;;;;63.58;32.97;;;;;;;21.91;77.34;99122.31;5137599;27;20042;-79
2021/08/12 06:57:43;;;;;;;58.50;27.77;;;;;;;21.81;77.23;99110.06;5156629;27;20043;-78
2021/08/12 07:00:10;;;;;;;63.97;29.25;;;;;;;21.84;76.64;99118.78;5137513;27;20043;-75
2021/08/12 07:02:37;;;;;;;67.80;29.67;;;;;;;21.94;77.14;99117.34;5138090;27;20054;-77
2021/08/12 07:05:04;;;;;;;67.63;31.30;;;;;;;22.00;77.30;99110.28;5137975;27;20128;-77
2021/08/12 07:07:29;;;;;;;55.95;27.05;;;;;;;22.02;76.36;99121.69;5137801;27;20049;-75
2021/08/12 07:09:55;;;;;;;54.35;26.35;;;;;;;22.00;75.79;99115.69;5137797;27;20047;-76
2021/08/12 07:12:23;;;;;;;47.03;26.13;;;;;;;21.90;75.81;99115.28;5137403;27;20174;-78
2021/08/12 07:14:50;;;;;;;50.63;26.75;;;;;;;21.84;75.91;99102.63;5137691;27;20559;-76
2021/08/12 07:17:17;;;;;;;55.70;27.63;;;;;;;21.86;76.27;99081.69;5137660;27;20396;-77
2021/08/12 07:19:45;;;;;;;58.90;29.88;;;;;;;21.89;76.67;99065.16;5137360;27;20283;-77
2021/08/12 07:22:11;;;;;;;60.25;28.20;;;;;;;21.95;76.45;99045.47;5137273;27;20047;-77
2021/08/12 07:24:37;;;;;;;67.22;32.28;;;;;;;22.00;76.40;99047.53;5137245;27;20069;-77
2021/08/12 07:27:03;;;;;;;63.25;28.60;;;;;;;22.16;76.09;99051.66;5156116;27;20487;-80
2021/08/12 07:29:28;;;;;;;69.57;31.90;;;;;;;22.17;76.31;99053.31;5155817;27;20039;-76
2021/08/12 07:31:54;;;;;;;58.42;28.27;;;;;;;22.30;75.76;99058.69;5155941;27;20050;-75
2021/08/12 07:34:24;;;;;;;56.15;31.10;;;;;;;22.28;75.92;99083.16;5137026;27;20103;-78
2021/08/12 07:36:52;;;;;;;58.17;31.65;;;;;;;22.33;75.83;99079.84;5119816;27;20038;-77
2021/08/12 07:39:18;;;;;;;59.40;31.33;;;;;;;22.44;75.93;99086.44;5136905;27;20046;-80
2021/08/12 07:41:44;;;;;;;60.15;30.13;;;;;;;22.58;75.17;99071.06;5137269;27;20182;-80
2021/08/12 07:44:10;;;;;;;62.13;31.73;;;;;;;22.57;74.49;99059.47;5137475;27;20046;-76
2021/08/12 07:46:37;;;;;;;60.40;31.58;;;;;;;22.56;75.21;99083.94;5136334;27;20051;-77
2021/08/12 07:49:03;;;;;;;60.08;31.17;;;;;;;22.70;75.75;99066.69;5137124;27;20049;-79
2021/08/12 07:51:29;;;;;;;60.45;34.08;;;;;;;22.77;75.12;99048.63;5155467;27;20039;-77
2021/08/12 07:53:55;;;;;;;69.45;35.63;;;;;;;22.72;74.92;99051.13;5155520;27;20514;-79
2021/08/12 07:56:22;;;;;;;72.90;37.15;;;;;;;22.74;74.50;99054.44;5155339;27;20039;-73
2021/08/12 07:58:48;;;;;;;83.50;39.60;;;;;;;22.61;75.02;99074.19;5155513;27;20129;-77
2021/08/12 08:01:17;;;;;;;80.15;39.67;;;;;;;22.63;75.25;99084.78;5154869;27;20066;-79
2021/08/12 08:03:44;;;;;;;84.53;41.10;;;;;;;22.60;75.70;99101.34;5155115;27;20058;-76
2021/08/12 08:06:10;;;;;;;82.23;41.83;;;;;;;22.56;74.88;99106.31;5155109;27;20045;-78
2021/08/12 08:08:36;;;;;;;89.95;41.40;;;;;;;22.69;75.32;99094.69;5155083;27;20042;-79
2021/08/12 08:11:01;;;;;;;86.80;41.67;;;;;;;22.94;75.02;99099.38;5154918;27;20402;-76
2021/08/12 08:13:27;;;;;;;93.45;43.67;;;;;;;23.00;73.90;99095.00;5154975;27;20046;-79
2021/08/12 08:15:53;;;;;;;93.47;44.28;;;;;;;22.90;73.08;99081.97;5154807;27;20046;-77
2021/08/12 08:18:19;;;;;;;93.45;42.97;;;;;;;22.82;73.61;99084.88;5155067;27;20042;-80
2021/08/12 08:20:45;;;;;;;96.05;45.00;;;;;;;22.77;74.53;99093.63;5155352;27;20445;-77
2021/08/12 08:23:12;;;;;;;92.85;44.25;;;;;;;22.92;74.53;99082.59;5154591;27;20050;-79
2021/08/12 08:25:38;;;;;;;89.18;42.20;;;;;;;22.97;73.97;99090.00;5155252;27;20046;-78
2021/08/12 08:28:04;;;;;;;88.78;42.42;;;;;;;22.93;73.61;99097.72;5155066;27;20043;-80
2021/08/12 08:30:33;;;;;;;95.00;44.57;;;;;;;22.87;73.16;99112.06;5154219;27;20562;-78
2021/08/12 08:32:59;;;;;;;93.20;45.55;;;;;;;22.70;73.72;99117.91;5136698;27;20283;-78
2021/08/12 08:35:25;;;;;;;99.45;47.13;;;;;;;22.49;74.71;99126.25;5154666;27;20045;-77
2021/08/12 08:37:52;;;;;;;103.18;48.55;;;;;;;22.59;75.71;99126.63;5136353;27;20038;-78
2021/08/12 08:40:18;;;;;;;101.28;47.05;;;;;;;22.70;76.29;99126.00;5135942;27;20065;-82
2021/08/12 08:42:47;;;;;;;103.65;47.60;;;;;;;22.78;75.88;99125.78;5154873;27;20514;-80
2021/08/12 08:45:20;;;;;;;117.85;65.45;;;;;;;22.88;75.69;99117.25;5154432;27;20121;-79
2021/08/12 08:47:46;;;;;;;125.63;58.25;;;;;;;22.96;74.12;99112.66;5154477;27;20519;-76
2021/08/12 08:50:16;;;;;;;106.72;49.83;;;;;;;22.99;74.23;99096.88;5154181;27;20102;-75
2021/08/12 08:52:43;;;;;;;114.80;51.65;;;;;;;23.07;73.84;99085.00;5154009;27;20498;-78
2021/08/12 08:55:09;;;;;;;102.40;48.35;;;;;;;23.04;74.02;99097.06;5154875;27;20094;-80
2021/08/12 08:57:35;;;;;;;117.13;52.25;;;;;;;22.99;75.42;99110.38;5154117;27;20043;-77
2021/08/12 09:00:01;;;;;;;114.55;51.83;;;;;;;22.84;75.53;99109.78;5135617;27;20053;-75
2021/08/12 09:02:27;;;;;;;114.03;50.33;;;;;;;22.84;76.15;99107.94;5154155;27;20039;-83
2021/08/12 09:05:06;;;;;;;114.70;51.15;;;;;;;22.83;76.00;99100.88;5154182;27;20043;-79
2021/08/12 09:07:35;;;;;;;142.35;54.08;;;;;;;22.81;76.66;99094.84;5154178;27;20046;-82
2021/08/12 09:10:01;;;;;;;128.70;53.35;;;;;;;22.72;76.59;99094.25;5119670;27;20043;-78
2021/08/12 09:12:29;;;;;;;142.35;60.17;;;;;;;22.57;77.07;99107.19;5154231;27;20122;-82
2021/08/12 09:15:03;;;;;;;139.30;56.95;;;;;;;22.60;78.58;99102.19;5156117;27;20121;-77
2021/08/12 09:17:30;;;;;;;136.23;54.35;;;;;;;22.61;78.71;99097.63;5155977;27;20499;-81
2021/08/12 09:20:15;;;;;;;130.43;53.92;;;;;;;22.71;79.05;99103.38;5137588;27;20070;-78
2021/08/12 09:22:57;;;;;;;121.68;52.83;;;;;;;22.81;78.87;99112.91;5154060;27;20054;-82
2021/08/12 09:25:36;;;;;;;111.72;49.20;;;;;;;22.77;76.54;99121.41;5154309;27;20050;-78
2021/08/12 09:28:24;;;;;;;114.97;49.33;;;;;;;22.69;77.18;99121.66;5154355;27;20155;-78
2021/08/12 09:31:02;;;;;;;113.88;49.58;;;;;;;22.83;76.39;99110.81;5153776;27;20038;-80
2021/08/12 09:33:30;;;;;;;119.80;51.55;;;;;;;22.98;75.71;99107.84;5153864;27;20046;-79
2021/08/12 09:35:56;;;;;;;117.97;51.60;;;;;;;23.10;75.48;99109.69;5153892;27;20066;-74
2021/08/12 09:38:24;;;;;;;121.30;53.03;;;;;;;23.21;74.86;99112.78;5153589;27;20146;-75
2021/08/12 09:40:54;;;;;;;104.95;48.70;;;;;;;23.58;73.69;99104.91;5154037;27;20039;-75
2021/08/12 09:43:21;;;;;;;107.68;48.78;;;;;;;23.89;71.98;99116.72;5135603;27;20117;-74
2021/08/12 09:45:47;;;;;;;102.82;48.67;;;;;;;24.00;71.24;99113.34;5154000;27;20050;-75
2021/08/12 09:48:20;;;;;;;99.43;47.05;;;;;;;24.14;70.16;99110.50;5135376;27;20054;-76
2021/08/12 09:51:00;;;;;;;108.00;48.38;;;;;;;24.26;71.46;99108.75;5153797;27;20042;-75
2021/08/12 09:53:26;;;;;;;105.50;47.55;;;;;;;24.31;71.01;99119.75;5153807;27;20034;-76
2021/08/12 09:55:52;;;;;;;97.07;46.50;;;;;;;24.39;70.74;99115.91;5153838;27;20487;-76
2021/08/12 09:58:19;;;;;;;93.45;44.88;;;;;;;24.56;70.16;99108.03;5153497;27;20049;-81
2021/08/12 10:00:49;;;;;;;83.18;41.05;;;;;;;24.70;67.95;99098.78;5153890;27;20082;-77
2021/08/12 10:03:24;;;;;;;79.47;41.10;;;;;;;24.78;67.89;99105.75;5135414;27;20049;-81
2021/08/12 10:05:50;;;;;;;88.47;43.13;;;;;;;24.88;67.02;99110.63;5135834;27;20051;-77
2021/08/12 10:08:30;;;;;;;93.50;44.03;;;;;;;24.80;67.55;99113.63;5153507;27;20046;-75
2021/08/12 10:11:04;;;;;;;91.18;44.88;;;;;;;24.52;66.81;99123.06;5156329;27;20050;-76
2021/08/12 10:13:30;;;;;;;87.50;43.17;;;;;;;24.65;68.32;99128.38;5138870;27;20410;-77
2021/08/12 10:15:56;;;;;;;97.75;46.95;;;;;;;24.49;68.61;99128.94;5157427;27;20046;-78
2021/08/12 10:18:22;;;;;;;91.43;44.70;;;;;;;24.38;68.14;99123.19;5138796;27;20129;-75
2021/08/12 10:20:48;;;;;;;87.30;43.40;;;;;;;24.18;68.46;99128.78;5157116;27;20077;-73
2021/08/12 10:23:14;;;;;;;90.15;43.80;;;;;;;23.94;68.77;99132.28;5157325;27;20046;-80
2021/08/12 10:25:41;;;;;;;82.13;40.85;;;;;;;24.10;68.14;99130.94;5139388;27;20067;-81
2021/08/12 10:28:08;;;;;;;85.85;40.67;;;;;;;24.14;67.72;99124.03;5139096;27;20042;-78
2021/08/12 10:30:35;;;;;;;80.45;42.05;;;;;;;24.07;67.92;99126.78;5156929;27;20093;-79
2021/08/12 10:33:04;;;;;;;80.53;41.00;;;;;;;23.96;68.21;99133.72;5157124;27;20081;-80
2021/08/12 10:35:32;;;;;;;83.63;40.97;;;;;;;23.85;68.18;99129.00;5156472;27;20291;-81
2021/08/12 10:37:59;;;;;;;82.35;41.08;;;;;;;23.81;67.72;99125.09;5157157;27;20131;-79
2021/08/12 10:40:36;;;;;;;81.57;41.67;;;;;;;23.89;68.41;99127.53;5156554;27;20050;-81
2021/08/12 10:43:03;;;;;;;76.53;38.88;;;;;;;23.96;67.26;99128.31;5138321;27;20061;-76
2021/08/12 10:45:29;;;;;;;76.90;38.17;;;;;;;23.92;67.74;99124.41;5138067;27;20038;-80
2021/08/12 10:47:57;;;;;;;86.57;42.10;;;;;;;24.04;67.81;99130.75;5156654;27;20452;-79
2021/08/12 10:50:23;;;;;;;83.15;40.65;;;;;;;23.84;67.43;99132.75;5156727;27;20357;-79
2021/08/12 10:53:04;;;;;;;82.97;42.17;;;;;;;23.99;69.23;99133.31;5156727;27;20047;-76
2021/08/12 10:55:31;;;;;;;82.60;41.80;;;;;;;24.21;68.28;99136.44;5156141;27;20448;-75
2021/08/12 10:58:18;;;;;;;191.68;98.22;;;;;;;24.30;69.38;99136.16;5156617;27;20038;-78
2021/08/12 11:00:45;;;;;;;107.15;52.55;;;;;;;24.19;68.31;99140.44;5156138;27;20047;-76
2021/08/12 11:03:11;;;;;;;164.00;76.40;;;;;;;23.89;70.20;99147.25;5156849;27;20035;-76
2021/08/12 11:06:02;;;;;;;189.65;90.90;;;;;;;23.77;70.82;99150.88;5137718;27;20090;-76
2021/08/12 11:08:50;;;;;;;93.15;44.97;;;;;;;23.48;69.80;99150.41;5156330;27;20490;-77
2021/08/12 11:11:28;;;;;;;95.28;45.97;;;;;;;23.15;71.07;99159.47;5138003;27;20070;-79
2021/08/12 11:14:12;;;;;;;106.22;47.25;;;;;;;22.94;72.78;99166.78;5156426;27;20050;-76
2021/08/12 11:16:41;;;;;;;113.95;49.47;;;;;;;22.68;74.08;99157.75;5156075;27;20415;-79
2021/08/12 11:19:33;;;;;;;112.07;50.30;;;;;;;22.67;74.53;99161.47;5158303;27;20043;-78
2021/08/12 11:21:59;;;;;;;121.45;52.35;;;;;;;22.71;75.28;99162.69;5155102;27;20039;-78